createdAt,value
2019-04-05T00:00:47.963Z,8.83
2019-04-05T00:03:53.118Z,9.60
2019-04-05T00:06:58.224Z,9.50
2019-04-05T00:10:03.433Z,8.83
2019-04-05T00:13:09.201Z,10.13
2019-04-05T00:16:14.538Z,10.37
2019-04-05T00:19:19.750Z,9.33
2019-04-05T00:22:24.987Z,10.87
2019-04-05T00:25:30.229Z,10.63
2019-04-05T00:28:35.620Z,10.57
2019-04-05T00:31:40.967Z,10.37
2019-04-05T00:34:46.218Z,10.47
2019-04-05T00:37:51.411Z,9.17
2019-04-05T00:40:56.874Z,10.10
2019-04-05T00:44:02.154Z,10.00
2019-04-05T00:47:07.502Z,9.70
2019-04-05T00:50:13.901Z,10.23
2019-04-05T00:53:19.032Z,10.73
2019-04-05T00:56:24.230Z,10.43
2019-04-05T00:59:29.531Z,10.03
2019-04-05T01:02:35.037Z,11.00
2019-04-05T01:05:40.166Z,10.77
2019-04-05T01:08:45.305Z,11.43
2019-04-05T01:11:50.533Z,11.57
2019-04-05T01:14:56.537Z,11.77
2019-04-05T01:18:01.982Z,10.23
2019-04-05T01:21:09.054Z,10.83
2019-04-05T01:24:15.538Z,10.57
2019-04-05T01:27:22.281Z,10.57
2019-04-05T01:30:27.435Z,10.93
2019-04-05T01:33:32.948Z,10.87
2019-04-05T01:36:38.128Z,10.43
2019-04-05T01:39:43.395Z,10.60
2019-04-05T01:42:48.756Z,11.13
2019-04-05T01:45:55.919Z,10.90
2019-04-05T01:49:03.382Z,11.40
2019-04-05T01:52:08.774Z,10.53
2019-04-05T01:55:14.702Z,9.80
2019-04-05T01:58:20.029Z,9.73
2019-04-05T02:01:25.132Z,9.63
2019-04-05T02:04:30.254Z,9.53
2019-04-05T02:07:35.714Z,9.80
2019-04-05T02:10:41.027Z,10.57
2019-04-05T02:13:46.145Z,11.37
2019-04-05T02:16:51.427Z,10.87
2019-04-05T02:19:56.699Z,9.90
2019-04-05T02:23:01.954Z,9.90
2019-04-05T02:26:07.160Z,10.90
2019-04-05T02:29:12.399Z,11.20
2019-04-05T02:32:17.540Z,10.77
2019-04-05T02:35:22.934Z,9.93
2019-04-05T02:38:28.195Z,10.53
2019-04-05T02:41:34.198Z,10.30
2019-04-05T02:44:41.050Z,10.17
2019-04-05T02:47:51.893Z,10.20
2019-04-05T02:51:00.198Z,10.57
2019-04-05T02:54:06.186Z,10.00
2019-04-05T02:57:12.320Z,9.83
2019-04-05T03:00:17.653Z,10.40
2019-04-05T03:03:23.054Z,10.87
2019-04-05T03:06:28.371Z,11.23
2019-04-05T03:09:34.388Z,10.37
2019-04-05T03:12:40.100Z,11.43
2019-04-05T03:15:45.675Z,10.27
2019-04-05T03:18:57.833Z,11.00
2019-04-05T03:22:06.086Z,10.97
2019-04-05T03:25:11.574Z,10.40
2019-04-05T03:28:17.049Z,9.90
2019-04-05T03:31:25.026Z,10.27
2019-04-05T03:34:29.343Z,10.13
2019-04-05T03:37:35.050Z,9.67
2019-04-05T03:40:40.172Z,9.60
2019-04-05T03:43:46.803Z,10.27
2019-04-05T03:46:57.183Z,10.20
2019-04-05T03:50:01.214Z,9.63
2019-04-05T03:53:07.036Z,10.60
2019-04-05T03:56:12.592Z,9.67
2019-04-05T03:59:18.124Z,10.00
2019-04-05T04:02:23.732Z,9.50
2019-04-05T04:05:29.301Z,10.70
2019-04-05T04:08:34.615Z,10.63
2019-04-05T04:11:39.930Z,10.00
2019-04-05T04:14:45.488Z,10.43
2019-04-05T04:17:50.930Z,10.47
2019-04-05T04:20:59.521Z,10.23
2019-04-05T04:24:05.166Z,10.60
2019-04-05T04:27:10.393Z,9.80
2019-04-05T04:30:16.293Z,10.07
2019-04-05T04:33:21.624Z,9.50
2019-04-05T04:36:27.177Z,9.33
2019-04-05T04:39:33.842Z,9.63
2019-04-05T04:42:39.114Z,9.63
2019-04-05T04:45:44.545Z,9.57
2019-04-05T04:48:49.968Z,10.77
2019-04-05T04:51:55.408Z,10.43
2019-04-05T04:55:00.675Z,10.07
2019-04-05T04:58:06.394Z,9.27
2019-04-05T05:01:11.520Z,11.30
2019-04-05T05:04:17.155Z,11.73
2019-04-05T05:07:22.302Z,11.20
2019-04-05T05:10:27.677Z,10.03
2019-04-05T05:13:34.266Z,9.67
2019-04-05T05:16:39.569Z,9.47
2019-04-05T05:19:45.143Z,9.97
2019-04-05T05:22:50.369Z,9.00
2019-04-05T05:25:55.695Z,9.77
2019-04-05T05:29:01.031Z,9.27
2019-04-05T05:32:09.582Z,10.40
2019-04-05T05:35:13.659Z,9.13
2019-04-05T05:38:19.107Z,8.47
2019-04-05T05:41:24.328Z,9.57
2019-04-05T05:44:30.736Z,10.70
2019-04-05T05:47:37.113Z,9.53
2019-04-05T05:50:42.593Z,9.47
2019-04-05T05:53:48.157Z,8.60
2019-04-05T05:56:53.368Z,10.33
2019-04-05T06:00:00.601Z,12.10
2019-04-05T06:03:06.414Z,11.30
2019-04-05T06:06:11.538Z,11.53
2019-04-05T06:09:16.847Z,10.73
2019-04-05T06:12:22.063Z,10.83
2019-04-05T06:15:27.342Z,10.87
2019-04-05T06:18:32.487Z,11.50
2019-04-05T06:21:37.590Z,10.93
2019-04-05T06:24:42.840Z,11.27
2019-04-05T06:27:48.051Z,11.43
2019-04-05T06:30:53.341Z,10.87
2019-04-05T06:33:59.584Z,11.67
2019-04-05T06:37:04.733Z,13.00
2019-04-05T06:40:09.943Z,11.57
2019-04-05T06:43:15.227Z,11.20
2019-04-05T06:46:20.453Z,9.87
2019-04-05T06:49:25.601Z,9.67
2019-04-05T06:52:30.820Z,11.10
2019-04-05T06:55:36.281Z,11.33
2019-04-05T06:58:41.392Z,11.60
2019-04-05T07:01:46.567Z,11.80
2019-04-05T07:04:51.806Z,12.60
2019-04-05T07:07:57.082Z,12.40
2019-04-05T07:11:02.329Z,12.10
2019-04-05T07:14:07.458Z,11.23
2019-04-05T07:17:12.610Z,11.23
2019-04-05T07:20:18.031Z,11.47
2019-04-05T07:23:23.411Z,11.37
2019-04-05T07:26:28.556Z,11.50
2019-04-05T07:29:33.754Z,11.07
2019-04-05T07:32:38.851Z,11.83
2019-04-05T07:35:44.074Z,12.43
2019-04-05T07:38:49.289Z,12.37
2019-04-05T07:41:54.426Z,12.57
2019-04-05T07:44:59.553Z,11.67
2019-04-05T07:48:04.772Z,11.87
2019-04-05T07:51:09.975Z,11.27
2019-04-05T07:54:15.067Z,11.10
2019-04-05T07:57:20.429Z,10.90
2019-04-05T08:01:00.059Z,11.17
2019-04-05T08:04:05.569Z,10.30
2019-04-05T08:07:11.473Z,10.67
2019-04-05T08:10:16.904Z,11.23
2019-04-05T08:13:24.241Z,9.97
2019-04-05T08:16:30.673Z,11.23
2019-04-05T08:19:35.947Z,10.80
2019-04-05T08:22:41.168Z,10.20
2019-04-05T08:25:46.408Z,10.67
2019-04-05T08:28:51.549Z,11.37
2019-04-05T08:31:56.694Z,9.87
2019-04-05T08:35:01.854Z,10.77
2019-04-05T08:38:07.015Z,10.77
2019-04-05T08:41:12.170Z,10.90
2019-04-05T08:44:17.353Z,11.73
2019-04-05T08:47:22.747Z,10.97
2019-04-05T08:50:28.017Z,10.47
2019-04-05T08:53:33.160Z,10.87
2019-04-05T08:56:38.337Z,10.77
2019-04-05T08:59:43.536Z,10.50
2019-04-05T09:02:49.333Z,10.80
2019-04-05T09:44:25.700Z,10.03
2019-04-05T09:47:30.819Z,9.07
2019-04-05T09:50:36.067Z,9.03
2019-04-05T09:53:41.262Z,8.90
2019-04-05T09:56:46.455Z,9.63
2019-04-05T09:59:51.541Z,9.47
2019-04-05T10:02:56.722Z,9.10
2019-04-05T10:06:03.162Z,8.50
2019-04-05T10:09:09.177Z,9.33
2019-04-05T10:12:14.341Z,9.30
2019-04-05T10:15:21.738Z,9.53
2019-04-05T10:18:26.524Z,8.83
2019-04-05T10:21:31.723Z,9.30
2019-04-05T10:24:36.872Z,9.63
2019-04-05T10:27:42.154Z,9.93
2019-04-05T10:30:47.484Z,9.67
2019-04-05T10:33:52.632Z,9.77
2019-04-05T10:36:57.765Z,9.53
2019-04-05T10:40:02.943Z,9.43
2019-04-05T10:43:08.317Z,9.77
2019-04-05T10:46:13.512Z,8.57
2019-04-05T10:49:18.741Z,9.37
2019-04-05T10:52:23.967Z,9.70
2019-04-05T10:55:29.030Z,9.40
2019-04-05T10:58:34.207Z,10.33
2019-04-05T13:57:40.888Z,12.07
2019-04-05T14:00:48.317Z,11.40
2019-04-05T14:08:10.299Z,12.23
2019-04-05T14:11:13.530Z,11.90
2019-04-05T14:14:18.738Z,11.40
2019-04-05T14:17:24.127Z,13.00
2019-04-05T14:20:29.295Z,11.97
2019-04-05T14:23:34.455Z,12.33
2019-04-05T14:26:39.661Z,11.00
2019-04-05T14:29:47.562Z,11.77
2019-04-05T14:46:12.612Z,13.40
2019-04-05T14:49:17.837Z,13.27
2019-04-05T14:52:25.503Z,12.40
2019-04-05T14:55:30.583Z,12.63
2019-04-05T14:58:35.867Z,13.10
2019-04-05T15:01:41.072Z,12.13
2019-04-05T15:04:46.218Z,14.07
2019-04-05T15:07:52.027Z,15.33
2019-04-05T15:10:58.313Z,14.07
2019-04-05T15:14:03.558Z,16.13
2019-04-05T15:17:08.745Z,13.27
2019-04-05T15:20:14.426Z,13.67
2019-04-05T15:23:19.610Z,15.03
2019-04-05T15:26:24.866Z,14.97
2019-04-05T15:29:30.956Z,13.07
2019-04-05T15:32:37.265Z,13.97
2019-04-05T15:35:42.425Z,13.53
2019-04-05T15:38:47.692Z,13.50
2019-04-05T15:41:52.907Z,13.47
2019-04-05T15:44:58.145Z,12.43
2019-04-05T15:48:03.383Z,14.80
2019-04-05T15:51:08.667Z,15.23
2019-04-05T15:54:13.917Z,15.40
2019-04-05T15:57:19.123Z,15.20
2019-04-05T16:00:40.452Z,15.73
2019-04-05T16:03:45.692Z,15.93
2019-04-05T16:06:50.912Z,18.93
2019-04-05T16:09:56.102Z,19.33
2019-04-05T16:13:01.339Z,16.03
2019-04-05T16:16:06.542Z,18.77
2019-04-05T16:19:11.727Z,15.57
2019-04-05T16:22:16.938Z,14.90
2019-04-05T16:25:22.184Z,15.47
2019-04-05T16:28:27.405Z,17.13
2019-04-05T16:31:32.839Z,19.40
2019-04-05T16:34:38.099Z,14.90
2019-04-05T16:37:43.340Z,16.73
2019-04-05T16:40:48.636Z,19.13
2019-04-05T16:43:53.841Z,19.27
2019-04-05T16:46:59.145Z,20.93
2019-04-05T16:50:04.886Z,27.90
2019-04-05T16:53:10.081Z,18.97
2019-04-05T16:56:15.302Z,18.27
2019-04-05T16:59:20.583Z,17.80
2019-04-05T17:02:25.831Z,18.33
2019-04-05T17:05:32.058Z,19.17
2019-04-05T17:08:37.323Z,18.53
2019-04-05T17:11:42.413Z,17.00
2019-04-05T17:14:48.186Z,17.60
2019-04-05T17:17:53.453Z,16.63
2019-04-05T17:20:58.707Z,17.53
2019-04-05T17:24:03.888Z,19.07
2019-04-05T17:27:09.125Z,20.47
2019-04-05T17:30:14.545Z,18.67
2019-04-05T17:33:19.742Z,20.30
2019-04-05T17:36:25.006Z,18.73
2019-04-05T17:39:30.219Z,18.63
2019-04-05T17:42:35.366Z,17.40
2019-04-05T17:45:40.507Z,18.20
2019-04-05T17:48:45.714Z,17.43
2019-04-05T17:51:50.980Z,18.03
2019-04-05T17:54:56.109Z,23.83
2019-04-05T17:58:02.950Z,26.23
2019-04-05T18:01:08.139Z,24.97
2019-04-05T18:04:13.310Z,20.13
2019-04-05T18:07:18.533Z,19.27
2019-04-05T18:10:24.890Z,19.17
2019-04-05T18:13:30.008Z,20.50
2019-04-05T18:16:35.280Z,23.77
2019-04-05T18:19:40.504Z,16.67
2019-04-05T18:22:45.767Z,15.60
2019-04-05T18:25:51.052Z,14.67
2019-04-05T18:28:56.235Z,14.13
2019-04-05T18:32:01.503Z,14.67
2019-04-05T18:35:07.957Z,15.33
2019-04-05T18:38:13.228Z,15.10
2019-04-05T18:41:18.382Z,14.20
2019-04-05T18:44:23.762Z,14.80
2019-04-05T18:47:28.980Z,16.57
2019-04-05T18:50:34.236Z,19.10
2019-04-05T18:53:39.456Z,28.07
2019-04-05T18:56:44.648Z,18.67
2019-04-05T18:59:49.835Z,16.23
2019-04-05T19:02:55.112Z,16.33
2019-04-05T19:06:00.300Z,16.60
2019-04-05T19:09:07.417Z,16.47
2019-04-05T19:12:14.204Z,16.90
2019-04-05T19:15:19.451Z,16.83
2019-04-05T19:18:24.700Z,18.93
2019-04-05T19:21:29.953Z,17.97
2019-04-05T19:24:35.082Z,16.60
2019-04-05T19:27:40.396Z,16.83
2019-04-05T19:49:30.969Z,16.63
2019-04-05T19:52:36.087Z,16.73
2019-04-05T19:55:41.324Z,16.20
2019-04-05T19:58:46.514Z,16.87
2019-04-05T20:01:51.677Z,16.67
2019-04-05T20:04:56.942Z,15.57
2019-04-05T20:08:02.172Z,16.00
2019-04-05T20:11:07.449Z,15.67
2019-04-05T20:14:12.612Z,15.33
2019-04-05T20:17:17.887Z,14.93
2019-04-05T20:20:23.075Z,13.67
2019-04-05T20:23:28.387Z,14.30
2019-04-05T20:26:33.559Z,14.57
2019-04-05T20:29:38.829Z,13.73
2019-04-05T20:32:44.124Z,13.90
2019-04-05T20:35:49.491Z,14.30
2019-04-05T20:38:54.629Z,13.17
2019-04-05T20:41:59.914Z,14.00
2019-04-05T20:45:06.304Z,14.60
2019-04-05T20:48:11.445Z,14.03
2019-04-05T20:51:16.522Z,15.63
2019-04-05T20:54:24.798Z,15.87
2019-04-05T20:57:28.626Z,15.50
2019-04-05T21:00:33.746Z,15.40
2019-04-05T21:03:38.933Z,15.07
2019-04-05T21:06:44.284Z,14.53
2019-04-05T21:09:49.768Z,15.40
2019-04-05T21:12:54.972Z,14.80
2019-04-05T21:16:00.193Z,14.83
2019-04-05T21:19:05.417Z,15.90
2019-04-05T21:22:10.588Z,15.03
2019-04-05T21:25:15.772Z,14.83
2019-04-05T21:28:20.964Z,13.83
2019-04-05T21:31:26.249Z,15.07
2019-04-05T21:34:31.460Z,14.97
2019-04-05T21:37:36.639Z,15.80
2019-04-05T21:40:41.773Z,15.27
2019-04-05T21:43:47.122Z,16.13
2019-04-05T21:46:52.376Z,16.23
2019-04-05T21:49:57.631Z,15.07
2019-04-05T21:53:02.792Z,16.47
2019-04-05T21:56:11.868Z,15.17
2019-04-05T21:59:18.661Z,15.70
2019-04-05T22:02:23.831Z,15.07
2019-04-05T22:05:29.053Z,14.67
2019-04-05T22:08:34.311Z,14.03
2019-04-05T22:11:39.487Z,13.20
2019-04-05T22:14:44.659Z,14.33
2019-04-05T22:17:49.786Z,16.30
2019-04-05T22:20:55.021Z,13.40
2019-04-05T22:24:00.225Z,13.80
2019-04-05T22:27:05.428Z,13.70
2019-04-05T22:30:11.347Z,14.63
2019-04-05T22:33:16.563Z,14.63
2019-04-05T22:36:21.744Z,16.13
2019-04-05T22:39:26.905Z,15.67
2019-04-05T22:42:32.051Z,16.57
2019-04-05T22:45:37.355Z,18.07
2019-04-05T22:48:42.523Z,17.67
2019-04-05T22:51:47.672Z,17.57
2019-04-05T22:54:52.822Z,16.23
2019-04-05T22:57:58.054Z,14.10
2019-04-05T23:01:03.205Z,19.12
2019-04-05T23:04:08.523Z,15.63
2019-04-05T23:07:13.694Z,14.20
2019-04-05T23:10:18.796Z,15.37
2019-04-05T23:13:23.981Z,14.90
2019-04-05T23:16:30.150Z,15.63
2019-04-05T23:19:35.377Z,15.23
2019-04-05T23:22:40.569Z,14.30
2019-04-05T23:25:45.785Z,13.87
2019-04-05T23:28:50.930Z,14.87
2019-04-05T23:31:56.228Z,15.60
2019-04-05T23:35:01.470Z,16.03
2019-04-05T23:38:06.589Z,15.70
2019-04-05T23:41:11.732Z,15.43
2019-04-05T23:44:16.881Z,16.53
2019-04-05T23:47:22.222Z,17.40
2019-04-05T23:50:27.463Z,17.07
2019-04-05T23:53:32.589Z,16.77
2019-04-05T23:56:37.821Z,17.03
2019-04-05T23:59:43.087Z,16.63
